Warrensville, Pennsylvania
Current Conditions -  °F | °C
As of 8:24 PM on Sunday 23 Nov 2014 (Local Time) from KIPT Reporting Station
Broken Clouds Broken Clouds  
Wind Chill: 51°   Ceiling: 2200
Heat Index: 51°   Visibility: 10mi
Dew Point: 29°   Wind: 12mph
Humidity: 43%   Direction: 90°E
Pressure: 29.95"   Gusts: 22mph
Location:  41.246°N, 77.0167°W
Report Text: KIPT 240124Z 09010G19KT 10SM BKN022 11/M02 A2995 RMK AO2 T01061017
Loading
Personal Weather Stations






























Interactive Weather Map New forecast layout! Learn more

10-Day Weather Forecast

Advertisements
Track Severe Weather on mobile